Hancock, Maine
Current Conditions -  °F | °C
As of 9:35 PM on Wednesday 17 Dec 2014 (Local Time) from KBHB Reporting Station
Overcast Overcast  
Wind Chill: 30°   Ceiling: 600
Heat Index: 36°   Visibility: 5mi
Dew Point: 36°   Wind: 7mph
Humidity: 100%   Direction: 340°NNW
Pressure: 29.59"   Gusts: NA
Location:  44.53°N, 68.25°W
Report Text: KBHB 180235Z AUTO 34006KT 5SM OVC006 02/02 A2959 RMK AO1
Loading
Personal Weather Stations






























Interactive Weather Map New forecast layout! Learn more

10-Day Weather Forecast

Advertisements
Track Severe Weather on mobile